Turner, Oregon
Current Conditions -  °F | °C
As of 9:56 AM on Thursday 30 Oct 2014 (Local Time) from KSLE Reporting Station
Haze Haze  
Wind Chill: 56°   Ceiling: 400
Heat Index: 56°   Visibility: 2mi
Dew Point: 55°   Wind: 6mph
Humidity: 97%   Direction: 300°WNW
Pressure: 29.85"   Gusts: NA
Location:  44.84°N, 122.95°W
Report Text: KSLE 301656Z 30005KT 2SM BR OVC004 13/13 A2985 RMK AO2 SLP109 T01330128
Loading
Personal Weather Stations






























Interactive Weather Map
Tropical Storm Tracking
New forecast layout! Learn more

10-Day Weather Forecast

Advertisements
Track Severe Weather on mobile